Time;durP1;ratioP1;P1;durP2;ratioP2;P2;SDS_P1;SDS_P2;PMS_P1;PMS_P2;Temp;Humidity;BMP_temperature;BMP_pressure;BME280_temperature;BME280_humidity;BME280_pressure;Samples;Min_cycle;Max_cycle;Signal;HPM_P1;HPM_P2
2023/03/08 00:01:33;;;;;;;6.97;4.55;;;-0.70;99.90;;;;;;5049194;28;20029;-63
2023/03/08 00:03:59;;;;;;;10.88;4.60;;;-0.70;99.90;;;;;;5046602;28;20064;-62
2023/03/08 00:06:26;;;;;;;8.57;4.55;;;-0.80;99.90;;;;;;5053904;28;20040;-63
2023/03/08 00:08:56;;;;;;;12.23;4.95;;;-0.70;99.90;;;;;;5053612;28;20065;-62
2023/03/08 00:11:23;;;;;;;7.77;4.73;;;-0.80;99.90;;;;;;5050740;28;20044;-63
2023/03/08 00:13:48;;;;;;;8.35;5.18;;;-0.80;99.90;;;;;;5045815;28;20313;-63
2023/03/08 00:16:14;;;;;;;10.45;4.95;;;-0.70;99.90;;;;;;5053652;28;20065;-63
2023/03/08 00:18:40;;;;;;;8.35;4.85;;;-0.80;99.90;;;;;;5049413;28;20033;-63
2023/03/08 00:21:23;;;;;;;9.05;5.38;;;-0.80;99.90;;;;;;5041594;28;20032;-62
2023/03/08 00:23:52;;;;;;;10.43;5.60;;;-0.80;99.90;;;;;;5053662;28;20045;-63
2023/03/08 00:26:18;;;;;;;10.40;5.82;;;-0.80;99.90;;;;;;5043033;28;20183;-62
2023/03/08 00:28:45;;;;;;;9.70;5.72;;;-0.80;99.90;;;;;;5051192;28;20127;-61
2023/03/08 00:31:12;;;;;;;14.98;6.45;;;-0.90;99.90;;;;;;5053577;28;20045;-62
2023/03/08 00:33:38;;;;;;;11.95;6.57;;;-0.80;99.90;;;;;;5053635;28;20243;-61
2023/03/08 00:36:06;;;;;;;11.82;6.63;;;-0.80;99.90;;;;;;5041448;28;20080;-61
2023/03/08 00:38:35;;;;;;;12.02;6.72;;;-0.90;99.90;;;;;;5051778;28;20037;-61
2023/03/08 00:41:01;;;;;;;11.43;6.68;;;-0.90;99.90;;;;;;5053741;28;20041;-61
2023/03/08 00:43:27;;;;;;;14.55;6.70;;;-0.90;99.90;;;;;;5041302;28;20049;-61
2023/03/08 00:45:53;;;;;;;11.20;7.03;;;-0.90;99.90;;;;;;5052876;28;20048;-61
2023/03/08 00:48:19;;;;;;;13.77;6.65;;;-0.90;99.90;;;;;;5053084;28;20032;-62
2023/03/08 00:50:44;;;;;;;11.85;7.00;;;-0.90;99.90;;;;;;5049098;28;20632;-63
2023/03/08 00:53:10;;;;;;;11.95;7.03;;;-1.00;99.90;;;;;;5039235;28;20071;-61
2023/03/08 00:55:36;;;;;;;13.05;6.95;;;-1.00;99.90;;;;;;5050961;28;20043;-61
2023/03/08 00:58:02;;;;;;;13.65;7.30;;;-1.00;99.90;;;;;;5053259;28;20044;-61
2023/03/08 01:00:29;;;;;;;11.95;6.82;;;-1.00;99.90;;;;;;5048336;28;20036;-61
2023/03/08 01:02:55;;;;;;;12.88;6.70;;;-1.00;99.90;;;;;;5044325;28;20045;-61
2023/03/08 01:05:21;;;;;;;12.88;7.38;;;-1.00;99.90;;;;;;5051467;28;20837;-62
2023/03/08 01:07:47;;;;;;;12.65;6.75;;;-1.00;99.90;;;;;;5049124;28;20041;-61
2023/03/08 01:10:13;;;;;;;12.13;7.05;;;-0.90;99.90;;;;;;5038500;28;20048;-61
2023/03/08 01:12:38;;;;;;;17.25;7.50;;;-0.90;99.90;;;;;;5050907;28;20064;-61
2023/03/08 01:15:05;;;;;;;12.52;7.80;;;-0.90;99.90;;;;;;5053082;28;20084;-62
2023/03/08 01:17:31;;;;;;;12.35;7.43;;;-0.90;99.90;;;;;;5049581;28;20539;-63
2023/03/08 01:19:57;;;;;;;12.07;7.18;;;-1.00;99.90;;;;;;5047498;28;20049;-61
2023/03/08 01:22:22;;;;;;;13.85;7.68;;;-0.90;99.90;;;;;;5048947;28;20059;-61
2023/03/08 01:24:48;;;;;;;14.05;7.68;;;-0.90;99.90;;;;;;5045717;28;20042;-61
2023/03/08 01:27:15;;;;;;;14.02;7.80;;;-0.90;99.90;;;;;;5046916;28;20037;-64
2023/03/08 01:29:42;;;;;;;15.85;7.85;;;-1.00;99.90;;;;;;5052208;28;20055;-61
2023/03/08 01:32:08;;;;;;;14.07;8.32;;;-1.00;99.90;;;;;;5052437;28;20037;-61
2023/03/08 01:34:36;;;;;;;13.60;7.80;;;-1.00;99.90;;;;;;5044392;28;20041;-62
2023/03/08 01:37:01;;;;;;;15.95;8.40;;;-1.00;99.90;;;;;;5040665;28;20411;-61
2023/03/08 01:39:27;;;;;;;17.30;8.45;;;-1.00;99.90;;;;;;5042714;28;20037;-61
2023/03/08 01:41:53;;;;;;;16.05;9.13;;;-1.00;99.90;;;;;;5041147;28;20044;-61
2023/03/08 01:44:21;;;;;;;15.98;9.27;;;-1.00;99.90;;;;;;5051462;28;20132;-62
2023/03/08 01:46:47;;;;;;;14.55;9.25;;;-1.00;99.90;;;;;;5051661;28;20041;-61
2023/03/08 01:49:17;;;;;;;16.92;9.60;;;-1.00;99.90;;;;;;5044537;28;20042;-61
2023/03/08 01:51:55;;;;;;;19.80;10.18;;;-1.10;99.90;;;;;;5038693;28;20052;-61
2023/03/08 01:54:28;;;;;;;17.83;9.65;;;-1.00;99.90;;;;;;5051874;28;20042;-61
2023/03/08 01:57:01;;;;;;;17.00;9.48;;;-1.00;99.90;;;;;;5052135;28;20503;-61
2023/03/08 01:59:29;;;;;;;17.23;10.07;;;-1.10;99.90;;;;;;5035440;28;20086;-63
2023/03/08 02:01:54;;;;;;;20.35;10.55;;;-1.10;99.90;;;;;;5045652;28;20111;-61
2023/03/08 02:04:20;;;;;;;16.60;9.60;;;-1.20;99.90;;;;;;5051816;28;20086;-61
2023/03/08 02:06:46;;;;;;;18.92;10.18;;;-1.20;99.90;;;;;;5043227;28;20446;-61
2023/03/08 02:09:11;;;;;;;16.80;9.82;;;-1.20;99.90;;;;;;5046156;28;20040;-61
2023/03/08 02:11:40;;;;;;;17.40;10.27;;;-1.30;99.90;;;;;;5051318;28;20087;-62
2023/03/08 02:14:06;;;;;;;20.65;11.27;;;-1.20;99.90;;;;;;5051659;28;20583;-62
2023/03/08 02:16:31;;;;;;;19.55;10.40;;;-1.20;99.90;;;;;;5045382;28;20518;-62
2023/03/08 02:19:00;;;;;;;17.15;10.77;;;-1.30;99.90;;;;;;5051265;28;20069;-61
2023/03/08 02:21:27;;;;;;;20.40;12.02;;;-1.30;99.90;;;;;;5051639;28;20041;-63
2023/03/08 02:23:54;;;;;;;22.60;12.07;;;-1.30;99.90;;;;;;5048379;28;20151;-61
2023/03/08 02:26:21;;;;;;;20.85;11.35;;;-1.40;99.90;;;;;;5036844;28;20641;-63
2023/03/08 02:28:47;;;;;;;18.90;12.00;;;-1.40;99.90;;;;;;5050253;28;20053;-61
2023/03/08 02:31:13;;;;;;;22.33;12.82;;;-1.40;99.90;;;;;;5048384;28;20052;-62
2023/03/08 02:33:39;;;;;;;20.70;12.48;;;-1.30;99.90;;;;;;5038507;28;20400;-61
2023/03/08 02:36:07;;;;;;;20.10;11.82;;;-1.30;99.90;;;;;;5050105;28;20041;-61
2023/03/08 02:38:33;;;;;;;21.20;12.20;;;-1.40;99.90;;;;;;5051276;28;20122;-62
2023/03/08 02:40:58;;;;;;;19.80;12.20;;;-1.40;99.90;;;;;;5047265;28;20398;-61
2023/03/08 02:43:24;;;;;;;18.67;11.38;;;-1.40;99.90;;;;;;5040929;28;20037;-60
2023/03/08 02:45:50;;;;;;;20.85;11.90;;;-1.40;99.90;;;;;;5043202;28;20037;-63
2023/03/08 02:48:16;;;;;;;22.35;11.77;;;-1.40;99.90;;;;;;5047754;28;20033;-63
2023/03/08 02:50:42;;;;;;;21.50;12.27;;;-1.40;99.90;;;;;;5037789;28;20083;-63
2023/03/08 02:53:08;;;;;;;20.33;12.30;;;-1.40;99.90;;;;;;5051266;28;20052;-63
2023/03/08 02:55:37;;;;;;;27.10;11.98;;;-1.40;99.90;;;;;;5051148;28;20487;-62
2023/03/08 02:58:07;;;;;;;21.48;11.75;;;-1.40;99.90;;;;;;5038503;28;20091;-63
2023/03/08 03:00:33;;;;;;;23.67;11.60;;;-1.40;99.90;;;;;;5048618;28;20567;-63
2023/03/08 03:02:59;;;;;;;22.05;11.95;;;-1.40;99.90;;;;;;5051314;28;20123;-64
2023/03/08 03:05:24;;;;;;;26.85;12.48;;;-1.40;99.90;;;;;;5037391;28;20129;-64
2023/03/08 03:07:50;;;;;;;20.67;12.05;;;-1.40;99.90;;;;;;5042660;28;20048;-63
2023/03/08 03:10:16;;;;;;;21.15;13.45;;;-1.50;99.90;;;;;;5051012;28;20491;-63
2023/03/08 03:12:42;;;;;;;22.98;13.88;;;-1.40;99.90;;;;;;5045326;28;20491;-63
2023/03/08 03:15:09;;;;;;;21.17;13.25;;;-1.40;99.90;;;;;;5041934;28;20051;-63
2023/03/08 03:17:37;;;;;;;23.35;12.60;;;-1.40;99.90;;;;;;5050631;28;20403;-64
2023/03/08 03:20:07;;;;;;;24.08;12.82;;;-1.40;99.90;;;;;;5047092;28;20395;-60
2023/03/08 03:22:32;;;;;;;22.88;13.77;;;-1.40;99.90;;;;;;5035939;28;20045;-63
2023/03/08 03:24:58;;;;;;;25.50;14.32;;;-1.40;99.90;;;;;;5050743;28;20045;-63
2023/03/08 03:27:23;;;;;;;23.65;14.50;;;-1.40;99.90;;;;;;5051003;28;20041;-63
2023/03/08 03:29:49;;;;;;;25.35;13.68;;;-1.40;99.90;;;;;;5051666;28;20678;-63
2023/03/08 03:32:15;;;;;;;23.75;13.77;;;-1.40;99.90;;;;;;5044298;28;20384;-63
2023/03/08 03:34:40;;;;;;;25.75;13.43;;;-1.40;99.90;;;;;;5054424;28;20127;-63
2023/03/08 03:37:06;;;;;;;21.30;12.82;;;-1.40;99.90;;;;;;5054744;28;20044;-62
2023/03/08 03:39:38;;;;;;;22.15;12.70;;;-1.40;99.90;;;;;;5038417;28;20821;-63
2023/03/08 03:42:07;;;;;;;23.40;12.95;;;-1.50;99.90;;;;;;5048224;28;20033;-64
2023/03/08 03:44:33;;;;;;;21.00;13.00;;;-1.60;99.90;;;;;;5054785;28;20043;-63
2023/03/08 03:46:59;;;;;;;23.35;12.85;;;-1.60;99.90;;;;;;5054656;28;20116;-63
2023/03/08 03:49:25;;;;;;;24.20;13.30;;;-1.50;99.90;;;;;;5047816;28;20045;-62
2023/03/08 03:51:50;;;;;;;22.55;13.05;;;-1.60;99.90;;;;;;5053891;28;20041;-61
2023/03/08 03:54:16;;;;;;;20.48;12.30;;;-1.60;99.90;;;;;;5052586;28;20067;-61
2023/03/08 03:56:42;;;;;;;23.30;12.70;;;-1.50;99.90;;;;;;5044077;28;20408;-64
2023/03/08 03:59:07;;;;;;;25.17;14.63;;;-1.60;99.90;;;;;;5053843;28;20040;-63
2023/03/08 04:01:33;;;;;;;20.70;11.98;;;-1.70;99.90;;;;;;5054454;28;20037;-62
2023/03/08 04:03:59;;;;;;;21.98;12.40;;;-1.70;99.90;;;;;;5054335;28;20162;-63
2023/03/08 04:06:27;;;;;;;23.33;11.80;;;-1.70;99.90;;;;;;5049126;28;20049;-63
2023/03/08 04:08:54;;;;;;;22.98;11.80;;;-1.70;99.90;;;;;;5045894;28;20660;-63
2023/03/08 04:11:23;;;;;;;22.35;13.00;;;-1.80;99.90;;;;;;5048487;28;20231;-63
2023/03/08 04:13:49;;;;;;;22.75;12.85;;;-1.80;99.90;;;;;;5046066;28;20461;-64
2023/03/08 04:16:16;;;;;;;20.15;11.45;;;-1.80;99.90;;;;;;5053816;28;20040;-63
2023/03/08 04:18:42;;;;;;;16.95;11.52;;;-1.90;99.90;;;;;;5053834;28;20526;-63
2023/03/08 04:21:08;;;;;;;20.75;12.10;;;-1.90;99.90;;;;;;5041952;28;20037;-64
2023/03/08 04:23:35;;;;;;;20.88;11.85;;;-1.80;99.90;;;;;;5045378;28;20036;-63
2023/03/08 04:26:01;;;;;;;23.80;12.88;;;-1.80;99.90;;;;;;5052543;28;20110;-63
2023/03/08 04:28:28;;;;;;;23.52;12.90;;;-1.80;99.90;;;;;;5043685;28;20042;-63
2023/03/08 04:30:53;;;;;;;23.52;12.13;;;-1.80;99.90;;;;;;5046497;28;20404;-62
2023/03/08 04:33:20;;;;;;;23.38;12.82;;;-1.70;99.90;;;;;;5053301;28;20048;-63
2023/03/08 04:35:45;;;;;;;21.60;13.00;;;-1.70;99.90;;;;;;5053595;28;20144;-64
2023/03/08 04:38:11;;;;;;;19.27;11.95;;;-1.70;99.90;;;;;;5040124;28;20140;-63
2023/03/08 04:41:00;;;;;;;21.10;11.82;;;-1.80;99.90;;;;;;5050331;28;20083;-64
2023/03/08 04:43:23;;;;;;;17.63;11.30;;;-1.90;99.90;;;;;;5049696;28;20190;-64
2023/03/08 04:45:49;;;;;;;16.30;10.60;;;-1.90;99.90;;;;;;5039420;28;20041;-63
2023/03/08 04:48:15;;;;;;;18.10;11.77;;;-2.00;99.90;;;;;;5045304;28;20581;-63
2023/03/08 04:50:40;;;;;;;18.55;10.65;;;-2.00;99.90;;;;;;5052287;28;20049;-62
2023/03/08 04:53:07;;;;;;;19.15;11.32;;;-2.00;99.90;;;;;;5053152;28;20076;-63
2023/03/08 04:55:33;;;;;;;18.90;11.02;;;-2.10;99.90;;;;;;5048911;28;20408;-61
2023/03/08 04:57:58;;;;;;;20.25;11.38;;;-2.20;99.90;;;;;;5040574;28;20562;-63
2023/03/08 05:00:24;;;;;;;18.15;11.45;;;-2.20;99.90;;;;;;5052474;28;20124;-63
2023/03/08 05:02:50;;;;;;;18.42;11.25;;;-2.20;99.90;;;;;;5040682;28;20063;-63
2023/03/08 05:05:15;;;;;;;21.00;10.77;;;-2.20;99.90;;;;;;5049525;28;20112;-63
2023/03/08 05:07:41;;;;;;;17.13;11.18;;;-2.30;99.90;;;;;;5052375;28;20383;-62
2023/03/08 05:10:07;;;;;;;17.73;11.45;;;-2.30;99.90;;;;;;5042296;28;20103;-63
2023/03/08 05:12:32;;;;;;;20.35;12.15;;;-2.30;99.90;;;;;;5043695;28;20067;-63
2023/03/08 05:14:58;;;;;;;19.40;12.15;;;-2.30;99.90;;;;;;5052454;28;20064;-64
2023/03/08 05:17:24;;;;;;;21.02;11.60;;;-2.20;99.90;;;;;;5052189;28;20128;-63
2023/03/08 05:19:49;;;;;;;20.88;11.70;;;-2.10;99.90;;;;;;5035190;28;20044;-63
2023/03/08 05:22:15;;;;;;;18.50;11.90;;;-2.10;99.90;;;;;;5047889;28;20507;-63
2023/03/08 05:24:41;;;;;;;19.27;11.82;;;-2.10;99.90;;;;;;5051482;28;20102;-63
2023/03/08 05:27:07;;;;;;;24.80;11.85;;;-2.00;99.90;;;;;;5052572;28;20503;-64
2023/03/08 05:29:33;;;;;;;21.23;11.60;;;-1.90;99.90;;;;;;5038104;28;20441;-63
2023/03/08 05:32:01;;;;;;;17.77;11.40;;;-1.90;99.90;;;;;;5045355;28;20633;-64
2023/03/08 05:34:27;;;;;;;20.83;12.57;;;-1.90;99.90;;;;;;5048395;28;20078;-61
2023/03/08 05:36:53;;;;;;;18.63;12.32;;;-1.90;99.90;;;;;;5043344;28;20048;-61
2023/03/08 05:39:19;;;;;;;19.13;12.30;;;-1.90;99.90;;;;;;5051985;28;20037;-61
2023/03/08 05:41:44;;;;;;;17.95;11.43;;;-1.90;99.90;;;;;;5052186;28;20048;-61
2023/03/08 05:44:10;;;;;;;22.77;12.27;;;-1.90;99.90;;;;;;5040408;28;20042;-63
2023/03/08 05:46:38;;;;;;;22.77;12.05;;;-2.00;99.90;;;;;;5044225;28;20075;-61
2023/03/08 05:49:05;;;;;;;24.30;12.15;;;-2.00;99.90;;;;;;5042015;28;20041;-63
2023/03/08 05:51:31;;;;;;;21.60;11.07;;;-2.00;99.90;;;;;;5040306;28;20030;-61
2023/03/08 05:53:57;;;;;;;17.23;11.13;;;-2.00;99.90;;;;;;5046889;28;20502;-61
2023/03/08 05:56:23;;;;;;;15.65;10.82;;;-2.00;99.90;;;;;;5050755;28;20040;-61
2023/03/08 05:58:50;;;;;;;17.35;10.70;;;-2.00;99.90;;;;;;5048990;28;20041;-61
2023/03/08 06:01:20;;;;;;;17.80;10.60;;;-2.00;99.90;;;;;;5046353;28;20049;-61
2023/03/08 06:03:48;;;;;;;20.20;11.10;;;-2.00;99.90;;;;;;5050156;28;20091;-61
2023/03/08 06:06:14;;;;;;;22.63;11.32;;;-2.00;99.90;;;;;;5050617;28;20087;-61
2023/03/08 06:08:40;;;;;;;21.85;12.48;;;-2.00;99.90;;;;;;5042422;28;20076;-61
2023/03/08 06:11:06;;;;;;;18.63;11.57;;;-2.00;99.90;;;;;;5050271;28;20041;-61
2023/03/08 06:13:32;;;;;;;21.10;11.95;;;-1.90;99.90;;;;;;5049926;28;20047;-61
2023/03/08 06:15:59;;;;;;;21.35;12.35;;;-1.90;99.90;;;;;;5048520;28;20475;-60
2023/03/08 06:18:26;;;;;;;21.85;13.13;;;-1.90;99.90;;;;;;5037513;28;20052;-61
2023/03/08 06:21:13;;;;;;;23.63;13.25;;;-1.90;99.90;;;;;;5043373;28;20048;-62
2023/03/08 06:23:39;;;;;;;21.08;12.32;;;-1.90;99.90;;;;;;5051588;28;20036;-60
2023/03/08 06:26:07;;;;;;;23.73;13.23;;;-1.90;99.90;;;;;;5042167;28;20063;-61
2023/03/08 06:28:33;;;;;;;26.35;15.43;;;-1.90;99.90;;;;;;5041040;28;20402;-61
2023/03/08 06:30:58;;;;;;;29.20;16.30;;;-1.90;99.90;;;;;;5048028;28;20052;-61
2023/03/08 06:33:27;;;;;;;28.20;16.00;;;-1.90;99.90;;;;;;5048856;28;20076;-62
2023/03/08 06:36:01;;;;;;;30.40;16.58;;;-1.90;99.90;;;;;;5033385;28;20051;-62
2023/03/08 06:38:28;;;;;;;28.35;16.83;;;-1.90;99.90;;;;;;5044406;28;20487;-62
2023/03/08 06:40:53;;;;;;;32.17;15.70;;;-1.90;99.90;;;;;;5050673;28;20036;-61
2023/03/08 06:43:19;;;;;;;33.20;16.08;;;-1.90;99.90;;;;;;5038523;28;20036;-61
2023/03/08 06:45:45;;;;;;;28.58;16.88;;;-1.90;99.90;;;;;;5050327;28;20510;-61
2023/03/08 06:48:11;;;;;;;28.08;15.63;;;-1.90;99.90;;;;;;5051171;28;20068;-61
2023/03/08 06:50:36;;;;;;;29.10;16.92;;;-1.80;99.90;;;;;;5050500;28;20078;-61
2023/03/08 06:53:02;;;;;;;55.13;18.63;;;-1.70;99.90;;;;;;5039630;28;20041;-64
2023/03/08 06:55:28;;;;;;;53.80;18.75;;;-1.60;99.90;;;;;;5044491;28;20477;-61
2023/03/08 06:57:54;;;;;;;109.65;18.85;;;-1.60;99.90;;;;;;5047459;28;20036;-62
2023/03/08 07:00:21;;;;;;;104.60;22.65;;;-1.60;99.90;;;;;;5040650;28;20487;-61
2023/03/08 07:02:47;;;;;;;87.13;20.88;;;-1.50;99.90;;;;;;5038342;28;20752;-64
2023/03/08 07:05:14;;;;;;;62.15;19.58;;;-1.40;99.90;;;;;;5049835;28;20044;-61
2023/03/08 07:07:41;;;;;;;80.05;19.10;;;-1.30;99.90;;;;;;5041649;28;20036;-62
2023/03/08 07:10:09;;;;;;;133.50;19.23;;;-1.20;99.90;;;;;;5051840;28;20036;-62
2023/03/08 07:12:39;;;;;;;209.60;23.38;;;-1.20;99.90;;;;;;5053902;28;20041;-61
2023/03/08 07:15:06;;;;;;;222.55;23.38;;;-1.20;99.90;;;;;;5051732;28;20047;-62
2023/03/08 07:17:33;;;;;;;107.70;21.60;;;-1.20;99.90;;;;;;5039635;28;20033;-63
2023/03/08 07:19:59;;;;;;;174.63;22.60;;;-1.10;99.90;;;;;;5052203;28;20403;-62
2023/03/08 07:22:25;;;;;;;156.30;23.10;;;-1.00;99.90;;;;;;5054351;28;20041;-62
2023/03/08 07:24:50;;;;;;;124.00;20.35;;;-1.00;99.90;;;;;;5055116;28;20395;-61
2023/03/08 07:27:16;;;;;;;104.75;21.38;;;-0.90;99.90;;;;;;5043364;28;20041;-64
2023/03/08 07:29:42;;;;;;;186.02;24.92;;;-0.80;99.90;;;;;;5050732;28;20045;-62
2023/03/08 07:32:08;;;;;;;128.32;21.65;;;-0.80;99.90;;;;;;5053700;28;20149;-62
2023/03/08 07:34:33;;;;;;;99.43;21.00;;;-0.70;99.90;;;;;;5048484;28;20033;-61
2023/03/08 07:36:59;;;;;;;106.10;19.45;;;-0.60;99.90;;;;;;5049847;28;20346;-61
2023/03/08 07:39:24;;;;;;;109.47;18.63;;;-0.60;99.90;;;;;;5054061;28;20037;-62
2023/03/08 07:41:50;;;;;;;106.38;20.35;;;-0.60;99.90;;;;;;5054627;28;20125;-62
2023/03/08 07:44:15;;;;;;;122.35;20.85;;;-0.50;99.90;;;;;;5047931;28;20407;-61
2023/03/08 07:46:41;;;;;;;133.65;22.65;;;-0.40;99.90;;;;;;5045775;28;20045;-62
2023/03/08 07:49:09;;;;;;;174.98;22.85;;;-0.30;99.90;;;;;;5054144;28;20075;-61
2023/03/08 07:51:35;;;;;;;71.97;21.45;;;-0.30;99.90;;;;;;5044891;28;20046;-63
2023/03/08 07:54:01;;;;;;;149.00;23.40;;;-0.20;99.90;;;;;;5042101;28;20063;-61
2023/03/08 07:56:27;;;;;;;145.48;23.67;;;-0.20;99.90;;;;;;5054263;28;20495;-61
2023/03/08 07:58:56;;;;;;;111.82;21.58;;;-0.10;99.90;;;;;;5053951;28;20407;-62
2023/03/08 08:01:21;;;;;;;140.63;23.52;;;0.00;99.90;;;;;;5043456;28;20084;-62
2023/03/08 08:03:47;;;;;;;140.68;23.20;;;0.10;99.90;;;;;;5045022;28;20502;-61
2023/03/08 08:06:13;;;;;;;178.30;26.83;;;0.20;99.90;;;;;;5053743;28;20094;-61
2023/03/08 08:08:38;;;;;;;138.02;23.95;;;0.20;99.90;;;;;;5045012;28;20120;-61
2023/03/08 08:11:13;;;;;;;130.00;21.42;;;0.20;99.90;;;;;;5053818;28;20487;-62
2023/03/08 08:13:39;;;;;;;76.68;21.60;;;0.30;99.90;;;;;;5052923;28;20071;-62
2023/03/08 08:16:06;;;;;;;138.65;22.25;;;0.30;99.90;;;;;;5047476;28;20036;-61
2023/03/08 08:18:32;;;;;;;68.40;20.67;;;0.30;99.90;;;;;;5043478;28;20060;-63
2023/03/08 08:21:01;;;;;;;108.22;23.15;;;0.30;99.90;;;;;;5053690;28;20040;-61
2023/03/08 08:23:27;;;;;;;92.57;20.80;;;0.20;99.90;;;;;;5054103;28;20029;-61
2023/03/08 08:25:53;;;;;;;75.60;21.25;;;0.20;99.90;;;;;;5038843;28;20537;-61
2023/03/08 08:28:19;;;;;;;75.10;20.70;;;0.20;99.90;;;;;;5050147;28;20347;-62
2023/03/08 08:30:54;;;;;;;106.32;21.10;;;0.20;99.90;;;;;;5053341;28;20037;-62
2023/03/08 08:33:20;;;;;;;99.05;20.77;;;0.20;99.90;;;;;;5048469;28;20052;-62
2023/03/08 08:35:46;;;;;;;74.13;19.92;;;0.20;99.90;;;;;;5049256;28;20045;-61
2023/03/08 08:38:11;;;;;;;87.95;20.73;;;0.30;99.90;;;;;;5043210;28;20048;-62
2023/03/08 08:40:37;;;;;;;69.75;20.42;;;0.30;99.90;;;;;;5033704;28;20033;-64
2023/03/08 08:43:02;;;;;;;60.72;20.23;;;0.30;99.90;;;;;;5036418;28;20538;-62
2023/03/08 08:45:28;;;;;;;63.25;19.95;;;0.30;99.90;;;;;;5049891;28;20060;-62
2023/03/08 08:47:53;;;;;;;43.30;18.17;;;0.30;99.90;;;;;;5052513;28;20049;-63
2023/03/08 08:50:19;;;;;;;63.42;19.52;;;0.40;99.90;;;;;;5041316;28;20037;-61
2023/03/08 08:52:45;;;;;;;56.50;19.70;;;0.50;99.90;;;;;;5051296;28;20049;-61
2023/03/08 08:55:10;;;;;;;58.70;19.30;;;0.50;99.90;;;;;;5052923;28;20119;-61
2023/03/08 08:57:36;;;;;;;53.55;19.17;;;0.60;99.90;;;;;;5048646;28;21534;-61
2023/03/08 09:00:05;;;;;;;54.83;20.27;;;0.70;99.90;;;;;;5045111;28;20728;-62
2023/03/08 09:02:31;;;;;;;43.05;19.17;;;0.70;99.90;;;;;;5052841;28;20045;-61
2023/03/08 09:04:56;;;;;;;46.15;21.05;;;0.80;99.90;;;;;;5053172;28;20045;-61
2023/03/08 09:07:22;;;;;;;47.17;19.48;;;0.90;99.90;;;;;;5043270;28;20056;-61
2023/03/08 09:09:47;;;;;;;57.45;20.63;;;0.90;99.90;;;;;;5046019;28;20048;-61
2023/03/08 09:12:13;;;;;;;52.58;18.60;;;0.90;99.90;;;;;;5056608;22;20477;-62
2023/03/08 09:14:39;;;;;;;48.42;18.65;;;1.00;99.90;;;;;;5041846;28;20045;-62
2023/03/08 09:17:05;;;;;;;44.47;17.83;;;1.00;99.90;;;;;;5038581;28;21221;-61
2023/03/08 09:19:31;;;;;;;52.05;18.45;;;1.00;99.90;;;;;;5044935;28;20095;-62
2023/03/08 09:21:57;;;;;;;54.08;16.85;;;1.00;99.90;;;;;;5039344;28;20437;-62
2023/03/08 09:24:23;;;;;;;50.15;17.83;;;1.10;99.90;;;;;;5036029;28;20037;-62
2023/03/08 09:26:48;;;;;;;42.78;17.63;;;1.10;99.90;;;;;;5031461;28;20402;-61
2023/03/08 09:29:14;;;;;;;51.28;17.45;;;1.20;99.90;;;;;;5028583;28;20099;-62
2023/03/08 09:31:41;;;;;;;47.03;16.70;;;1.10;99.90;;;;;;5028816;28;20038;-62
2023/03/08 09:34:09;;;;;;;75.55;18.00;;;1.20;99.90;;;;;;5025922;28;20507;-62
2023/03/08 09:36:38;;;;;;;58.28;18.13;;;1.30;99.90;;;;;;5032177;28;20037;-62
2023/03/08 09:39:07;;;;;;;47.10;16.70;;;1.30;99.90;;;;;;5032303;28;20156;-62
2023/03/08 09:41:52;;;;;;;54.55;18.80;;;1.40;99.90;;;;;;5028620;28;20112;-62
2023/03/08 09:44:27;;;;;;;66.93;21.45;;;1.50;99.90;;;;;;5031431;28;20084;-62
2023/03/08 09:47:08;;;;;;;60.88;21.67;;;1.50;99.90;;;;;;5024315;28;20160;-61
2023/03/08 09:49:35;;;;;;;52.03;20.58;;;1.50;99.90;;;;;;5021729;28;20049;-62
2023/03/08 09:52:19;;;;;;;55.20;19.80;;;1.60;99.90;;;;;;5031531;28;20514;-62
2023/03/08 09:54:46;;;;;;;46.83;18.80;;;1.70;99.90;;;;;;5031701;28;20134;-62
2023/03/08 09:57:22;;;;;;;49.95;18.75;;;1.70;99.90;;;;;;5031897;28;20120;-62
2023/03/08 09:59:59;;;;;;;46.53;17.70;;;1.90;99.90;;;;;;5030676;28;20044;-62
2023/03/08 10:03:01;;;;;;;48.38;18.83;;;2.00;99.90;;;;;;5031671;28;20408;-62
2023/03/08 10:05:34;;;;;;;37.35;16.15;;;2.00;99.90;;;;;;5028587;28;20503;-62
2023/03/08 10:08:12;;;;;;;30.23;15.77;;;2.10;99.90;;;;;;5031201;28;20065;-62
2023/03/08 10:11:02;;;;;;;33.88;15.23;;;2.30;99.90;;;;;;5031743;28;20063;-62
2023/03/08 10:13:36;;;;;;;29.05;14.23;;;2.30;99.90;;;;;;5029291;28;20033;-62
2023/03/08 10:16:24;;;;;;;28.30;13.85;;;2.40;99.90;;;;;;5017826;28;20033;-62
2023/03/08 10:18:51;;;;;;;36.22;14.60;;;2.50;99.90;;;;;;5031330;28;20071;-62
2023/03/08 10:21:22;;;;;;;34.35;16.00;;;2.60;99.90;;;;;;5026322;28;20029;-62
2023/03/08 10:23:58;;;;;;;30.73;13.02;;;2.70;99.90;;;;;;5023494;28;20128;-62
2023/03/08 10:26:26;;;;;;;29.40;13.73;;;2.80;99.90;;;;;;5008120;28;20404;-62
2023/03/08 10:28:51;;;;;;;28.40;12.52;;;2.90;99.90;;;;;;5015393;28;20033;-62
2023/03/08 10:31:21;;;;;;;27.60;12.82;;;3.00;99.90;;;;;;5016897;28;20034;-62
2023/03/08 10:33:52;;;;;;;27.60;13.00;;;3.00;99.90;;;;;;5029534;28;20124;-60
2023/03/08 10:36:21;;;;;;;29.52;13.13;;;3.00;99.90;;;;;;5030221;28;20120;-60
2023/03/08 10:39:16;;;;;;;30.90;12.18;;;3.10;99.90;;;;;;5033988;28;20077;-60
2023/03/08 10:41:48;;;;;;;23.52;12.02;;;3.30;99.90;;;;;;5013429;28;20045;-62
2023/03/08 10:44:39;;;;;;;30.70;14.38;;;3.40;99.90;;;;;;5030051;28;20051;-62
2023/03/08 10:47:26;;;;;;;23.77;11.32;;;3.50;99.90;;;;;;5027617;28;20053;-63
2023/03/08 10:50:22;;;;;;;23.45;11.55;;;3.50;99.90;;;;;;5029242;28;20103;-62
2023/03/08 10:52:49;;;;;;;23.73;12.00;;;3.50;99.90;;;;;;5013023;28;20045;-63
2023/03/08 10:55:20;;;;;;;24.85;11.75;;;3.70;99.90;;;;;;5026941;28;20041;-62
2023/03/08 10:57:59;;;;;;;23.75;12.07;;;3.70;99.90;;;;;;5029502;28;20690;-62
2023/03/08 11:00:41;;;;;;;23.58;11.93;;;3.80;99.90;;;;;;5030025;28;20065;-63
2023/03/08 11:03:17;;;;;;;;;;;3.90;99.90;;;;;;5026148;28;20034;-62
2023/03/08 11:06:12;;;;;;;22.35;11.63;;;3.80;99.90;;;;;;5029679;28;20037;-62
2023/03/08 11:08:56;;;;;;;28.20;12.02;;;3.80;99.90;;;;;;5029369;28;20037;-62
2023/03/08 11:11:22;;;;;;;27.55;11.57;;;3.80;99.90;;;;;;5023187;28;20402;-60
2023/03/08 11:13:50;;;;;;;25.77;11.70;;;3.80;99.90;;;;;;5016373;28;20041;-60
2023/03/08 11:16:44;;;;;;;25.50;12.48;;;3.90;99.90;;;;;;5029780;28;20040;-60
2023/03/08 11:19:25;;;;;;;25.58;12.18;;;3.90;99.90;;;;;;5029735;28;20480;-60
2023/03/08 11:22:06;;;;;;;;;;;4.00;99.90;;;;;;5032893;28;20050;-60
2023/03/08 11:24:38;;;;;;;24.42;11.40;;;4.00;99.90;;;;;;5031957;28;19997;-61
2023/03/08 11:27:34;;;;;;;24.38;11.35;;;4.10;99.90;;;;;;5030037;28;20053;-60
2023/03/08 11:30:17;;;;;;;23.73;12.13;;;4.00;99.90;;;;;;5027476;28;20045;-60
2023/03/08 11:33:07;;;;;;;24.10;11.85;;;4.00;99.90;;;;;;5029557;28;20048;-62
2023/03/08 11:36:12;;;;;;;25.15;12.73;;;4.10;99.90;;;;;;5030800;28;20705;-62
2023/03/08 11:38:38;;;;;;;23.77;10.98;;;4.20;99.90;;;;;;5016542;28;20154;-62
2023/03/08 11:41:30;;;;;;;23.30;11.02;;;4.30;99.90;;;;;;5033354;28;20480;-63
2023/03/08 11:44:17;;;;;;;23.02;11.25;;;4.40;99.90;;;;;;5029918;28;20408;-62
2023/03/08 11:47:32;;;;;;;25.05;11.48;;;4.40;99.90;;;;;;5027168;28;20167;-62
2023/03/08 11:50:39;;;;;;;22.30;11.63;;;4.40;99.90;;;;;;5018598;28;20140;-63
2023/03/08 11:53:16;;;;;;;25.00;11.48;;;4.40;99.90;;;;;;4984592;28;20042;-63
2023/03/08 11:55:50;;;;;;;23.75;11.82;;;4.50;99.90;;;;;;5029454;28;20046;-63
2023/03/08 11:58:27;;;;;;;26.73;12.65;;;4.60;99.90;;;;;;5033062;28;20049;-63
2023/03/08 12:00:59;;;;;;;25.02;12.15;;;4.50;99.90;;;;;;5030405;28;20033;-63
2023/03/08 12:03:39;;;;;;;23.27;10.80;;;4.50;99.90;;;;;;5024464;28;20042;-63
2023/03/08 12:06:29;;;;;;;23.60;11.85;;;4.50;99.90;;;;;;5026307;28;20045;-63
2023/03/08 12:09:01;;;;;;;31.05;12.90;;;4.70;99.90;;;;;;5018954;28;20045;-63
2023/03/08 12:11:39;;;;;;;26.60;12.57;;;4.60;99.90;;;;;;5030604;28;20041;-62
2023/03/08 12:14:22;;;;;;;28.85;12.70;;;4.60;99.90;;;;;;5033090;28;20045;-61
2023/03/08 12:17:09;;;;;;;27.65;12.98;;;4.70;99.90;;;;;;5033970;28;20052;-61
2023/03/08 12:19:39;;;;;;;29.05;12.80;;;4.60;99.90;;;;;;5027341;28;20599;-61
2023/03/08 12:22:22;;;;;;;28.42;12.80;;;4.60;99.90;;;;;;5026826;28;20403;-61
2023/03/08 12:25:21;;;;;;;32.95;14.40;;;4.60;99.90;;;;;;5033836;28;20060;-61
2023/03/08 12:27:56;;;;;;;30.08;13.43;;;4.50;99.90;;;;;;5014422;28;20052;-61
2023/03/08 12:30:31;;;;;;;33.95;13.82;;;4.50;99.90;;;;;;5032398;28;20080;-63
2023/03/08 12:32:58;;;;;;;28.52;11.70;;;4.50;99.90;;;;;;5027871;28;20111;-62
2023/03/08 12:35:33;;;;;;;28.35;12.43;;;4.50;99.90;;;;;;5030424;28;20480;-63
2023/03/08 12:38:06;;;;;;;33.03;12.93;;;4.50;99.90;;;;;;5032507;28;20453;-63
2023/03/08 12:40:39;;;;;;;29.70;12.10;;;4.50;99.90;;;;;;5032506;28;20079;-63
2023/03/08 12:43:30;;;;;;;36.63;13.57;;;4.60;99.90;;;;;;5029863;28;20116;-63
2023/03/08 12:46:00;;;;;;;41.83;14.38;;;4.60;99.90;;;;;;5005514;28;20045;-63